Nearby METAR (Airport) Reports

 

KPRN - Greenville, Alabama, USA
Distance from station: WNW 17mi, 28km
Updated: Tue, 11-Dec-2018 2:21am CST
Overcast
Overcast
 Wind from varies
Wind: varies 7 mph , 11 km/h
Temperature: 39°F , 4°C
Wind Chill: 34°F , 1°C
Dew Point: 36°F , 2°C
Humidity: 87%
Barometer: 30.29 inHg , 1025.7 hPa
Clouds: Overcast
Visibility: 10 miles , 16 km
Cloud details: Partly cloudy 800 ft
Overcast 1300 ft
2018/12/11 08:21 KPRN 110821Z AUTO VRB06KT 10SM SCT008 OVC013 04/02 A3029 RMK AO2 T00440017
KTOI - Troy, Alabama, USA
Distance from station: ENE 21mi, 34km
Updated: Tue, 11-Dec-2018 1:53am CST
Overcast
Overcast
 Wind from NNW
Wind: NNW 7 mph , 11 km/h
Temperature: 39°F , 4°C
Wind Chill: 34°F , 1°C
Dew Point: 37°F , 3°C
Humidity: 93%
Barometer: 30.29 inHg , 1025.7 hPa
Clouds: Overcast
Visibility: 10 miles , 16 km
Cloud details: Overcast 900 ft
2018/12/11 07:53 KTOI 110753Z AUTO 33006KT 10SM OVC009 04/03 A3029 RMK AO2 SLP257 T00440028
K79J - Andalusia/Opp Ar, Alabama, USA
Distance from station: S 29mi, 47km
Updated: Tue, 11-Dec-2018 1:56am CST
Overcast
Overcast
 Wind from NW
Wind: NW 8 mph , 13 km/h
Temperature: 43°F , 6°C
Wind Chill: 38°F , 3°C
Dew Point: 37°F , 3°C
Humidity: 81%
Barometer: 30.29 inHg , 1025.7 hPa
Clouds: Overcast
Visibility: 10 miles , 16 km
Cloud details: Overcast 1100 ft
2018/12/11 07:56 K79J 110756Z AUTO 32007KT 10SM OVC011 06/03 A3029 RMK AO2 SLP257 T00610028
 
KMGM - Montgomery, Alabama, USA
Distance from station: N 39mi, 63km
Updated: Tue, 11-Dec-2018 1:53am CST
Overcast
Overcast
 Wind from WNW
Wind: WNW 7 mph , 11 km/h
Temperature: 41°F , 5°C
Wind Chill: 36°F , 2°C
Dew Point: 37°F , 3°C
Humidity: 87%
Barometer: 30.31 inHg , 1026.4 hPa
Clouds: Overcast
Visibility: 10 miles , 16 km
Cloud details: Overcast 1700 ft
2018/12/11 07:53 KMGM 110753Z 30006KT 10SM OVC017 05/03 A3031 RMK AO2 SLP266 T00500033
KMXF - Maxwell Afb/Mgm, Alabama, USA
Distance from station: N 44mi, 70km
Updated: Tue, 11-Dec-2018 2:26am CST
Overcast
Overcast
 Wind from WNW
Wind: WNW 5 mph , 7 km/h
Temperature: 41°F , 5°C
Wind Chill: 38°F , 3°C
Dew Point: 36°F , 2°C
Humidity: 81%
Barometer: 30.31 inHg , 1026.4 hPa
Clouds: Overcast
Visibility: 10 miles , 16 km
Cloud details: Few Clouds 1700 ft
Overcast 2400 ft
2018/12/11 08:26 KMXF 110826Z AUTO 30004KT 10SM FEW017 OVC024 05/02 A3031 RMK AO2 SLP268 $
KLOR - Lowe Ahp/Ft. Ruc, Alabama, USA
Distance from station: SE 44mi, 71km
Updated: Tue, 11-Dec-2018 1:59am CST
Mist, Overcast
Mist, Overcast
 Wind from NW
Wind: NW 6 mph , 9 km/h
Temperature: 39°F , 4°C
Wind Chill: 35°F , 2°C
Dew Point: 39°F , 4°C
Humidity: 100%
Barometer: 30.28 inHg , 1025.4 hPa
Summary: Mist
Clouds: Overcast
Visibility: 4 miles , 6 km
Cloud details: Overcast 900 ft
2018/12/11 07:59 KLOR 110759Z AUTO 31005KT 4SM BR OVC009 04/04 A3028 RMK AO2 SLP238 T00440041
 
KGZH - Evergreen, Alabama, USA
Distance from station: WSW 46mi, 75km
Updated: Tue, 11-Dec-2018 2:26am CST
Overcast
Overcast
 Wind from NNW
Wind: NNW 5 mph , 7 km/h
Temperature: 43°F , 6°C
Wind Chill: 40°F , 4°C
Dew Point: 37°F , 3°C
Humidity: 81%
Barometer: 30.32 inHg , 1026.8 hPa
Clouds: Overcast
Visibility: 10 miles , 16 km
Cloud details: Partly cloudy 1300 ft
Overcast 2100 ft
2018/12/11 08:26 KGZH 110826Z AUTO 33004KT 10SM SCT013 OVC021 06/03 A3032 RMK AO2 T00560028
K0J4 - Florala Muni, Alabama, USA
Distance from station: S 47mi, 76km
Updated: Tue, 11-Dec-2018 1:58am CST
Overcast
Overcast
 Wind from varies
Wind: varies 3 mph , 6 km/h
Temperature: 41°F , 5°C
Dew Point: 36°F , 2°C
Humidity: 81%
Barometer: 30.32 inHg , 1026.8 hPa
Clouds: Overcast
Visibility: 10 miles , 16 km
Cloud details: Overcast 1300 ft
2018/12/11 07:58 K0J4 110758Z AUTO VRB03KT 10SM OVC013 05/02 A3032 RMK AO2 SLP266 T00500017 $
KOZR - Ozark/Cairns Aaf, Alabama, USA
Distance from station: SE 49mi, 78km
Updated: Tue, 11-Dec-2018 2:01am CST
Overcast
Overcast
 Wind from NW
Wind: NW 8 mph , 13 km/h
Temperature: 41°F , 5°C
Wind Chill: 36°F , 2°C
Dew Point: 37°F , 3°C
Humidity: 87%
Barometer: 30.27 inHg , 1025.1 hPa
Clouds: Overcast
Visibility: 10 miles , 16 km
Cloud details: Overcast 700 ft
2018/12/11 08:01 KOZR 110801Z AUTO 32007KT 10SM OVC007 05/03 A3027 RMK AO2 SLP254
 
KHEY - Ft Rucker/Hanche, Alabama, USA
Distance from station: ESE 49mi, 79km
Updated: Tue, 11-Dec-2018 1:59am CST
Overcast
Overcast
 Wind from NW
Wind: NW 6 mph , 9 km/h
Temperature: 41°F , 5°C
Wind Chill: 37°F , 3°C
Dew Point: 39°F , 4°C
Humidity: 93%
Barometer: 30.27 inHg , 1025.1 hPa
Clouds: Overcast
Visibility: 7 miles , 11 km
Cloud details: Overcast 700 ft
2018/12/11 07:59 KHEY 110759Z AUTO 32005KT 7SM OVC007 05/04 A3027 RMK AO2 SLP254
KDHN - Dothan, Alabama, USA
Distance from station: ESE 61mi, 97km
Updated: Tue, 11-Dec-2018 1:53am CST
Overcast
Overcast
 Wind from NNW
Wind: NNW 9 mph , 15 km/h
Temperature: 43°F , 6°C
Wind Chill: 38°F , 3°C
Dew Point: 37°F , 3°C
Humidity: 81%
Barometer: 30.29 inHg , 1025.7 hPa
Clouds: Overcast
Visibility: 8 miles , 13 km
Cloud details: Overcast 1000 ft
2018/12/11 07:53 KDHN 110753Z AUTO 33008KT 8SM OVC010 06/03 A3029 RMK AO2 CIG 008V013 SLP259 T00560028
KCEW - Crestview, Florida, USA
Distance from station: S 66mi, 107km
Updated: Tue, 11-Dec-2018 1:53am CST
Overcast
Overcast
 Wind from NNW
Wind: NNW 9 mph , 15 km/h
Temperature: 41°F , 5°C
Wind Chill: 35°F , 2°C
Dew Point: 36°F , 2°C
Humidity: 81%
Barometer: 30.32 inHg , 1026.8 hPa
Clouds: Overcast
Visibility: 10 miles , 16 km
Cloud details: Overcast 1500 ft
2018/12/11 07:53 KCEW 110753Z AUTO 34008KT 10SM OVC015 05/02 A3032 RMK AO2 SLP266 T00500022
 
KEUF - Eufaula, Alabama, USA
Distance from station: ENE 73mi, 118km
Updated: Tue, 11-Dec-2018 1:02am CST
NOT Current
Mist, Overcast
Mist, Overcast
 Wind from varies
Wind: varies 6 mph , 9 km/h
Temperature: 43°F , 6°C
Wind Chill: 39°F , 4°C
Dew Point: 41°F , 5°C
Humidity: 93%
Barometer: 30.25 inHg , 1024.4 hPa
Summary: Mist
Clouds: Overcast
Visibility: 6 miles , 10 km
Cloud details: Mostly cloudy 700 ft
Mostly cloudy 1100 ft
Overcast 1600 ft
2018/12/11 07:02 KEUF 110702Z AUTO VRB05KT 6SM BR BKN007 BKN011 OVC016 06/05 A3025 RMK AO2 T00560050 $
KJKA - Gulf Shores, Alabama, USA
Distance from station: SSW 132mi, 212km
Updated: Tue, 11-Dec-2018 2:15am CST
Clear
Clear
 Wind from NNW
Wind: NNW 6 mph , 9 km/h
Temperature: 41°F , 5°C
Wind Chill: 37°F , 3°C
Dew Point: 37°F , 3°C
Humidity: 87%
Barometer: 30.34 inHg , 1027.4 hPa
Clouds: Clear
Visibility: 10 miles , 16 km
2018/12/11 08:15 KJKA 110815Z AUTO 33005KT 10SM CLR 05/03 A3034 RMK AO2 T00520027
KLSF - Ft Benning/Colum, Georgia, USA
Distance from station: SNE 89mi, 143km
Updated: Tue, 11-Dec-2018 2:21am CST
Overcast
Overcast
 Wind from W
Wind: W 8 mph , 13 km/h
Temperature: 43°F , 6°C
Wind Chill: 38°F , 3°C
Dew Point: 43°F , 6°C
Humidity: 100%
Barometer: 30.25 inHg , 1024.4 hPa
Clouds: Overcast
Visibility: 10 miles , 16 km
Cloud details: Mostly cloudy 1000 ft
Overcast 1400 ft
2018/12/11 08:21 KLSF 110821Z AUTO 28007KT 10SM BKN010 OVC014 06/06 A3025 RMK AO2 CIG 008V010 SLP250
 
KMOB - Mobile/Bates, Alabama, USA
Distance from station: SW 125mi, 202km
Updated: Tue, 11-Dec-2018 2:27am CST
Mostly cloudy
Mostly cloudy
 Wind from NW
Wind: NW 5 mph , 7 km/h
Temperature: 43°F , 6°C
Wind Chill: 40°F , 4°C
Dew Point: 37°F , 3°C
Humidity: 81%
Barometer: 30.34 inHg , 1027.4 hPa
Clouds: Mostly cloudy
Visibility: 10 miles , 16 km
Cloud details: Mostly cloudy 2700 ft
2018/12/11 08:27 KMOB 110827Z AUTO 32004KT 10SM BKN027 06/03 A3034 RMK AO2 T00560033
KNMM - Meridian Nas, Mississippi, USA
Distance from station: WNW 151mi, 243km
Updated: Tue, 11-Dec-2018 1:56am CST
Clear
Clear
 Wind from NW
Wind: NW 3 mph , 6 km/h
Temperature: 36°F , 2°C
Dew Point: 34°F , 1°C
Humidity: 93%
Barometer: 30.36 inHg , 1028.1 hPa
Clouds: Clear
Visibility: 10 miles , 16 km
2018/12/11 07:56 KNMM 110756Z AUTO 32003KT 10SM CLR 02/01 A3036 RMK AO2 SLP294 T00170006 $
KQHY - Hurlbert (Ft Walton Bch), Florida, USA
Distance from station: S 94mi, 151km
Updated: Tue, 11-Dec-2018 1:56am CST
Overcast
Overcast
 Wind from N
Wind: N 3 mph , 6 km/h
Temperature: 43°F , 6°C
Dew Point: 37°F , 3°C
Humidity: 81%
Barometer: 30.32 inHg , 1026.8 hPa
Clouds: Overcast
Visibility: 10 miles , 16 km
Cloud details: Overcast 1500 ft
2018/12/11 07:56 KQHY 110756Z AUTO 35003KT 10SM OVC015 06/03 A3032 RMK AO2 SLP274 T00570027 $
 
KTCL - Tuscaloosa, Alabama, USA
Distance from station: NNW 129mi, 207km
Updated: Tue, 11-Dec-2018 1:53am CST
Mist, Clear
Mist, Clear
 Wind from calm
Wind: Calm
Temperature: 36°F , 2°C
Dew Point: 32°F , 0°C
Humidity: 87%
Barometer: 30.35 inHg , 1027.8 hPa
Summary: Mist
Clouds: Clear
Visibility: 5 miles , 8 km
2018/12/11 07:53 KTCL 110753Z AUTO 00000KT 5SM BR CLR 02/00 A3035 RMK AO2 SLP277 T00170000
KECP - Panama City, Florida, USA
Distance from station: SSE 122mi, 196km
Updated: Tue, 11-Dec-2018 1:53am CST
Overcast
Overcast
 Wind from WNW
Wind: WNW 6 mph , 9 km/h
Temperature: 43°F , 6°C
Wind Chill: 39°F , 4°C
Dew Point: 36°F , 2°C
Humidity: 76%
Barometer: 30.29 inHg , 1025.7 hPa
Clouds: Overcast
Visibility: 10 miles , 16 km
Cloud details: Overcast 2000 ft
2018/12/11 07:53 KECP 110753Z AUTO 29005KT 10SM OVC020 06/02 A3029 RMK AO2 SLP268 T00560022
KCBM - Columbus Afb, Mississippi, USA
Distance from station: NW 175mi, 282km
Updated: Tue, 11-Dec-2018 2:01am CST
Freezing fog, Clear
Freezing fog, Clear
 Wind from W
Wind: W 5 mph , 7 km/h
Temperature: 27°F , -3°C
Wind Chill: 21°F , -6°C
Dew Point: 25°F , -4°C
Humidity: 93%
Barometer: 30.36 inHg , 1028.1 hPa
Summary: Freezing Fog
Clouds: Clear
Visibility: 5 miles , 8 km
2018/12/11 08:01 KCBM 110801Z AUTO 27004KT 5SM FZFG CLR M03/M04 A3036 RMK AO2 VIS 1/2 RWY13C SLP286 $
 
KBHM - Birmingham, Alabama, USA
Distance from station: N 132mi, 212km
Updated: Tue, 11-Dec-2018 2:28am CST
Mist, Clear
Mist, Clear
 Wind from calm
Wind: Calm
Temperature: 30°F , -1°C
Dew Point: 30°F , -1°C
Humidity: 100%
Barometer: 30.33 inHg , 1027.1 hPa
Summary: Mist
Clouds: Clear
Visibility: 2 1/2 miles , 4 km
2018/12/11 08:28 KBHM 110828Z 00000KT 2 1/2SM BR CLR M01/M01 A3033 RMK AO2 T10061011
KAAF - Apalachicola, Florida, USA
Distance from station: SSE 156mi, 250km
Updated: Tue, 11-Dec-2018 1:53am CST
Overcast
Overcast
 Wind from NW
Wind: NW 7 mph , 11 km/h
Temperature: 43°F , 6°C
Wind Chill: 39°F , 4°C
Dew Point: 36°F , 2°C
Humidity: 76%
Barometer: 30.27 inHg , 1025.1 hPa
Clouds: Overcast
Visibility: 10 miles , 16 km
Cloud details: Mostly cloudy 1700 ft
Overcast 2400 ft
2018/12/11 07:53 KAAF 110753Z AUTO 32006KT 10SM BKN017 OVC024 06/02 A3027 RMK AO2 SLP251 T00560017 $
KATL - Atlanta, Georgia, USA
Distance from station: NE 177mi, 287km
Updated: Tue, 11-Dec-2018 1:52am CST
Mist, Overcast
Mist, Overcast
 Wind from NW
Wind: NW 8 mph , 13 km/h
Temperature: 39°F , 4°C
Wind Chill: 33°F , 1°C
Dew Point: 37°F , 3°C
Humidity: 93%
Barometer: 30.21 inHg , 1023 hPa
Summary: Mist
Clouds: Overcast
Visibility: 5 miles , 8 km
Cloud details: Mostly cloudy 500 ft
Mostly cloudy 1000 ft
Overcast 1700 ft
2018/12/11 07:52 KATL 110752Z 32007KT 5SM BR BKN005 BKN010 OVC017 04/03 A3021 RMK AO2 SLP236 T00440028
 
KGPT - Gulfport, Mississippi, USA
Distance from station: SW 192mi, 309km
Updated: Tue, 11-Dec-2018 1:53am CST
Clear
Clear
 Wind from NNW
Wind: NNW 3 mph , 6 km/h
Temperature: 37°F , 3°C
Dew Point: 34°F , 1°C
Humidity: 87%
Barometer: 30.36 inHg , 1028.1 hPa
Clouds: Clear
Visibility: 10 miles , 16 km
2018/12/11 07:53 KGPT 110753Z AUTO 34003KT 10SM CLR 03/01 A3036 RMK AO2 SLP278 T00330011
KNEW - New Orleans/Lake, Louisiana, USA
Distance from station: SW 255mi, 410km
Updated: Tue, 11-Dec-2018 1:53am CST
Clear
Clear
 Wind from N
Wind: N 17 mph , 28 km/h
Temperature: 45°F , 7°C
Wind Chill: 38°F , 3°C
Dew Point: 36°F , 2°C
Humidity: 71%
Barometer: 30.39 inHg , 1029.1 hPa
Clouds: Clear
Visibility: 10 miles , 16 km
2018/12/11 07:53 KNEW 110753Z AUTO 01015KT 10SM CLR 07/02 A3039 RMK AO2 SLP282 T00720017
KP92 - Salt Point, Louisiana, USA
Distance from station: SW 347mi, 559km
Updated: Tue, 11-Dec-2018 1:53am CST

 Wind from calm
Wind: Calm
Barometer: 30.40 inHg , 1029.5 hPa
2018/12/11 07:53 KP92 110753Z AUTO 00000KT A3040 RMK AO1 SLP296 $